Date,TemperatureHighF,TemperatureAvgF,TemperatureLowF,DewpointHighF,DewpointAvgF,DewpointLowF,HumidityHigh,HumidityAvg,HumidityLow,PressureMaxIn,PressureMinIn,WindSpeedMaxMPH,WindSpeedAvgMPH,GustSpeedMaxMPH,PrecipitationSumIn
2013-10-1,49.6,38.9,28.0,37.2,32.4,26.5,97,79,56,29.80,29.66,12,2,12,0.00
2013-10-2,48.4,43.9,40.8,43.6,41.0,35.9,95,90,75,29.82,29.75,13,4,13,0.08
2013-10-3,53.4,47.5,42.6,42.6,41.3,39.6,95,80,61,29.76,29.41,29,11,29,0.03
2013-10-4,52.6,45.2,37.4,45.0,40.7,35.4,96,85,67,29.75,29.45,7,1,7,0.00
2013-10-5,48.6,40.4,32.3,42.5,37.8,31.0,98,91,76,29.78,29.70,12,1,12,0.00
2013-10-6,47.9,42.3,39.1,45.2,40.7,37.3,97,94,87,29.72,29.67,14,3,14,0.22
2013-10-7,47.3,41.2,36.0,44.4,39.8,35.0,97,95,89,29.85,29.65,9,2,9,0.22
2013-10-8,48.2,44.2,42.4,47.6,42.8,40.1,98,95,88,29.65,29.05,17,6,17,2.51
2013-10-9,50.4,45.1,31.9,40.5,37.1,29.0,92,74,55,29.71,29.08,21,6,21,0.00
2013-10-10,41.9,36.2,28.9,40.7,34.7,27.3,97,94,89,29.72,29.66,12,3,12,0.48
2013-10-11,47.0,42.8,40.2,45.9,41.8,39.2,98,96,93,29.86,29.70,13,4,13,0.42
2013-10-12,50.7,46.0,42.1,45.2,42.3,39.7,97,88,68,29.83,29.57,20,4,20,0.19
2013-10-13,50.1,45.4,42.6,46.1,42.4,39.7,97,90,69,29.67,29.44,25,4,25,1.31
2013-10-14,48.4,43.6,38.4,45.9,41.8,37.4,98,93,86,30.05,29.67,12,2,12,0.05
2013-10-15,48.6,45.3,42.9,47.5,44.3,41.6,98,96,94,30.11,29.99,7,1,7,0.54
2013-10-16,47.4,46.1,42.9,46.9,45.0,42.0,99,96,91,30.24,30.11,8,2,8,0.11
2013-10-17,51.8,47.6,44.6,46.6,43.8,40.8,96,87,70,30.11,29.73,13,3,13,0.10
2013-10-18,49.0,46.0,42.9,45.1,42.3,39.1,95,87,74,29.77,29.55,20,4,20,0.33
2013-10-19,51.2,46.8,42.2,43.1,40.6,38.3,94,79,67,29.65,29.33,25,6,25,0.11
2013-10-20,50.0,44.2,34.2,43.3,39.4,32.3,93,84,70,29.93,29.65,12,2,12,0.13
2013-10-21,46.4,39.8,30.8,41.2,37.0,29.5,97,90,80,30.03,29.93,8,2,8,0.05
2013-10-22,44.5,40.8,35.2,41.3,38.0,33.1,97,90,80,30.18,30.01,15,4,15,0.11
2013-10-23,40.9,33.9,27.4,36.9,31.9,25.8,98,92,84,30.05,29.75,10,1,10,0.01
2013-10-24,44.5,36.4,27.4,39.5,33.2,26.2,96,88,77,29.82,29.60,20,4,20,0.09
2013-10-25,46.2,36.9,30.5,40.3,34.4,29.3,100,91,72,30.17,29.69,6,1,6,0.03
2013-10-26,41.7,34.6,28.4,38.3,32.5,27.3,98,92,84,30.44,30.17,15,3,15,0.01
2013-10-27,42.2,40.8,39.5,41.4,39.0,35.1,100,93,80,30.28,29.56,24,10,24,1.95
2013-10-28,48.0,45.5,42.3,47.2,44.4,41.5,98,96,91,29.56,29.22,24,8,24,2.31
2013-10-29,47.6,43.4,40.2,42.8,39.7,37.3,93,87,76,29.56,29.30,23,8,23,0.01
2013-10-30,47.6,44.0,42.0,41.0,38.1,36.3,92,80,69,29.30,29.05,29,12,29,0.04
2013-10-31,44.9,42.2,40.0,42.3,40.2,38.0,97,92,84,29.61,29.15,8,1,8,0.10